createdAt,value
2018-05-27T00:01:10.144Z,19.30
2018-05-27T00:03:37.644Z,20.00
2018-05-27T00:06:05.173Z,16.90
2018-05-27T00:08:32.644Z,16.50
2018-05-27T00:11:03.389Z,16.90
2018-05-27T00:13:31.656Z,18.30
2018-05-27T00:15:59.150Z,17.93
2018-05-27T00:18:26.596Z,16.97
2018-05-27T00:20:54.938Z,15.85
2018-05-27T00:23:23.712Z,17.10
2018-05-27T00:25:55.304Z,16.53
2018-05-27T00:28:27.981Z,17.85
2018-05-27T00:30:55.437Z,17.23
2018-05-27T00:33:22.953Z,17.63
2018-05-27T00:35:50.423Z,18.08
2018-05-27T00:38:18.456Z,14.73
2018-05-27T00:40:49.369Z,14.83
2018-05-27T00:43:19.887Z,14.30
2018-05-27T00:45:47.358Z,18.30
2018-05-27T00:48:14.861Z,15.70
2018-05-27T00:50:42.372Z,14.93
2018-05-27T00:53:13.301Z,15.83
2018-05-27T00:55:44.182Z,17.07
2018-05-27T00:58:11.653Z,13.60
2018-05-27T01:00:39.212Z,17.83
2018-05-27T01:03:06.715Z,16.70
2018-05-27T01:05:34.180Z,18.00
2018-05-27T01:08:01.689Z,13.45
2018-05-27T01:10:29.242Z,15.63
2018-05-27T01:13:00.582Z,13.03
2018-05-27T01:15:28.626Z,19.62
2018-05-27T01:17:56.119Z,17.35
2018-05-27T01:20:23.604Z,15.63
2018-05-27T01:22:51.084Z,16.60
2018-05-27T01:25:19.417Z,15.17
2018-05-27T01:27:47.881Z,14.13
2018-05-27T01:30:15.383Z,18.20
2018-05-27T01:32:42.839Z,19.80
2018-05-27T01:35:11.245Z,18.70
2018-05-27T01:37:40.333Z,19.17
2018-05-27T01:40:08.717Z,18.50
2018-05-27T01:42:40.821Z,19.25
2018-05-27T01:45:08.393Z,14.10
2018-05-27T01:47:35.892Z,17.12
2018-05-27T01:50:03.367Z,16.47
2018-05-27T01:52:30.920Z,15.53
2018-05-27T01:54:59.183Z,18.33
2018-05-27T01:57:27.540Z,12.63
2018-05-27T01:59:55.036Z,15.52
2018-05-27T02:02:22.491Z,14.33
2018-05-27T02:04:49.947Z,14.83
2018-05-27T02:07:17.470Z,12.97
2018-05-27T02:09:45.850Z,13.03
2018-05-27T02:12:16.573Z,11.30
2018-05-27T02:14:44.050Z,17.13
2018-05-27T02:17:11.520Z,13.97
2018-05-27T02:19:38.993Z,14.83
2018-05-27T02:22:06.507Z,17.52
2018-05-27T02:24:35.368Z,23.30
2018-05-27T02:27:02.908Z,19.27
2018-05-27T02:29:30.357Z,18.67
2018-05-27T02:31:58.638Z,20.20
2018-05-27T02:34:26.894Z,16.20
2018-05-27T02:36:55.036Z,19.42
2018-05-27T02:39:22.525Z,16.00
2018-05-27T02:41:49.984Z,17.90
2018-05-27T02:44:21.946Z,20.50
2018-05-27T02:46:50.172Z,16.98
2018-05-27T02:49:17.684Z,16.23
2018-05-27T02:51:45.145Z,18.00
2018-05-27T02:54:12.651Z,18.60
2018-05-27T02:56:40.117Z,14.83
2018-05-27T02:59:13.161Z,13.87
2018-05-27T03:01:40.612Z,14.37
2018-05-27T03:04:10.988Z,14.23
2018-05-27T03:06:38.671Z,16.63
2018-05-27T03:09:06.136Z,16.40
2018-05-27T03:11:34.534Z,16.57
2018-05-27T03:14:01.984Z,22.30
2018-05-27T03:16:30.399Z,13.80
2018-05-27T03:18:59.608Z,14.32
2018-05-27T03:21:27.105Z,15.77
2018-05-27T03:23:54.592Z,14.20
2018-05-27T03:26:22.822Z,14.50
2018-05-27T03:28:54.297Z,15.93
2018-05-27T03:31:21.753Z,14.38
2018-05-27T03:33:49.259Z,14.63
2018-05-27T03:36:16.732Z,13.95
2018-05-27T03:38:44.194Z,16.83
2018-05-27T03:41:11.680Z,13.53
2018-05-27T03:43:39.138Z,14.60
2018-05-27T03:46:08.321Z,12.88
2018-05-27T03:48:35.801Z,13.32
2018-05-27T03:51:03.298Z,15.57
2018-05-27T03:53:30.765Z,15.93
2018-05-27T03:55:58.270Z,12.97
2018-05-27T03:58:26.651Z,17.03
2018-05-27T04:00:54.920Z,10.93
2018-05-27T04:03:22.402Z,12.80
2018-05-27T04:06:01.609Z,11.50
2018-05-27T04:08:32.293Z,11.80
2018-05-27T04:10:59.960Z,16.87
2018-05-27T04:13:28.261Z,14.00
2018-05-27T04:15:55.738Z,16.15
2018-05-27T04:18:23.204Z,15.07
2018-05-27T04:20:50.718Z,13.30
2018-05-27T04:23:18.199Z,15.80
2018-05-27T04:25:45.700Z,16.70
2018-05-27T04:28:13.158Z,16.40
2018-05-27T04:30:40.637Z,15.50
2018-05-27T04:33:08.187Z,12.88
2018-05-27T04:35:35.671Z,13.83
2018-05-27T04:38:03.161Z,13.07
2018-05-27T04:40:31.388Z,13.23
2018-05-27T04:42:58.891Z,12.10
2018-05-27T04:45:26.360Z,12.47
2018-05-27T04:47:53.819Z,10.98
2018-05-27T04:50:21.349Z,11.63
2018-05-27T04:52:49.867Z,11.47
2018-05-27T04:55:18.125Z,12.68
2018-05-27T04:57:45.671Z,13.03
2018-05-27T05:00:13.159Z,12.18
2018-05-27T05:02:40.624Z,14.07
2018-05-27T05:05:08.100Z,12.47
2018-05-27T05:07:35.589Z,12.10
2018-05-27T05:10:03.744Z,12.43
2018-05-27T05:12:31.212Z,12.10
2018-05-27T05:15:03.113Z,13.00
2018-05-27T05:17:30.586Z,13.10
2018-05-27T05:19:58.805Z,12.60
2018-05-27T05:22:26.288Z,12.70
2018-05-27T05:24:53.780Z,14.93
2018-05-27T05:27:21.288Z,14.70
2018-05-27T05:29:48.774Z,14.40
2018-05-27T05:32:16.254Z,16.52
2018-05-27T05:34:43.735Z,13.30
2018-05-27T05:37:11.224Z,13.43
2018-05-27T05:39:38.715Z,13.62
2018-05-27T05:42:06.176Z,12.73
2018-05-27T05:44:33.630Z,13.32
2018-05-27T05:47:05.640Z,29.87
2018-05-27T05:49:33.129Z,17.70
2018-05-27T05:52:00.593Z,13.77
2018-05-27T05:54:28.105Z,13.52
2018-05-27T05:56:55.565Z,12.83
2018-05-27T05:59:23.068Z,12.73
2018-05-27T06:01:54.624Z,11.00
2018-05-27T06:04:26.051Z,11.82
2018-05-27T06:06:53.542Z,13.13
2018-05-27T06:09:22.601Z,10.98
2018-05-27T06:11:50.102Z,13.20
2018-05-27T06:14:17.558Z,11.20
2018-05-27T06:16:50.313Z,12.40
2018-05-27T06:19:17.764Z,10.43
2018-05-27T06:21:45.278Z,10.30
2018-05-27T06:24:12.743Z,10.53
2018-05-27T06:26:40.204Z,10.13
2018-05-27T06:29:07.700Z,11.30
2018-05-27T06:31:38.585Z,11.60
2018-05-27T06:34:11.025Z,11.75
2018-05-27T06:36:38.488Z,11.63
2018-05-27T06:39:06.909Z,11.63
2018-05-27T06:41:34.392Z,12.30
2018-05-27T06:44:01.873Z,12.13
2018-05-27T06:46:32.308Z,11.52
2018-05-27T06:48:59.751Z,11.27
2018-05-27T06:51:27.220Z,15.20
2018-05-27T06:53:54.676Z,12.45
2018-05-27T06:56:22.934Z,14.67
2018-05-27T06:58:51.596Z,12.07
2018-05-27T07:01:19.072Z,12.27
2018-05-27T07:03:46.534Z,11.60
2018-05-27T07:06:14.121Z,13.13
2018-05-27T07:08:41.577Z,12.43
2018-05-27T07:11:10.776Z,11.98
2018-05-27T07:13:38.269Z,10.83
2018-05-27T07:16:05.836Z,12.90
2018-05-27T07:18:33.424Z,12.43
2018-05-27T07:21:00.899Z,11.27
2018-05-27T07:23:29.051Z,12.93
2018-05-27T07:25:56.535Z,11.85
2018-05-27T07:28:24.021Z,10.53
2018-05-27T07:30:51.545Z,11.88
2018-05-27T07:33:19.824Z,11.40
2018-05-27T07:35:47.312Z,11.33
2018-05-27T07:38:14.787Z,11.90
2018-05-27T07:40:43.079Z,12.27
2018-05-27T07:43:10.530Z,12.30
2018-05-27T07:45:38.185Z,11.77
2018-05-27T07:48:13.236Z,11.35
2018-05-27T07:50:40.712Z,10.80
2018-05-27T07:53:08.184Z,10.50
2018-05-27T07:55:35.743Z,16.57
2018-05-27T07:58:03.212Z,11.33
2018-05-27T08:00:30.753Z,10.15
2018-05-27T08:02:58.218Z,11.93
2018-05-27T08:05:25.685Z,10.70
2018-05-27T08:07:53.938Z,10.83
2018-05-27T08:10:21.829Z,10.23
2018-05-27T08:12:49.316Z,10.73
2018-05-27T08:15:16.792Z,10.30
2018-05-27T08:17:44.291Z,10.40
2018-05-27T08:20:11.777Z,11.60
2018-05-27T08:22:39.261Z,9.20
2018-05-27T08:25:06.730Z,12.57
2018-05-27T08:27:34.214Z,10.50
2018-05-27T08:30:01.683Z,10.00
2018-05-27T08:32:30.654Z,9.73
2018-05-27T08:35:01.944Z,10.07
2018-05-27T08:37:31.073Z,9.70
2018-05-27T08:39:58.570Z,9.30
2018-05-27T08:42:26.082Z,9.53
2018-05-27T08:44:53.548Z,9.17
2018-05-27T08:47:21.044Z,9.90
2018-05-27T08:49:53.245Z,11.02
2018-05-27T08:52:20.748Z,9.75
2018-05-27T08:54:48.229Z,9.43
2018-05-27T08:57:15.747Z,9.43
2018-05-27T08:59:43.206Z,9.80
2018-05-27T09:02:10.681Z,8.97
2018-05-27T09:04:42.467Z,12.70
2018-05-27T09:07:10.719Z,8.40
2018-05-27T09:09:39.121Z,9.50
2018-05-27T09:12:06.648Z,8.53
2018-05-27T09:14:34.115Z,9.27
2018-05-27T09:17:01.627Z,11.50
2018-05-27T09:19:43.812Z,11.40
2018-05-27T09:22:11.276Z,8.30
2018-05-27T09:24:41.652Z,8.05
2018-05-27T09:27:09.119Z,8.70
2018-05-27T09:29:36.619Z,8.97
2018-05-27T09:32:05.798Z,8.00
2018-05-27T09:34:34.021Z,8.13
2018-05-27T09:37:01.529Z,11.60
2018-05-27T09:39:28.998Z,10.47
2018-05-27T09:41:56.484Z,9.90
2018-05-27T09:44:24.711Z,10.05
2018-05-27T09:46:52.165Z,8.32
2018-05-27T09:49:19.656Z,9.87
2018-05-27T09:51:47.137Z,8.37
2018-05-27T09:54:14.616Z,8.18
2018-05-27T09:56:43.009Z,7.73
2018-05-27T09:59:10.465Z,9.23
2018-05-27T10:01:38.873Z,7.90
2018-05-27T10:04:06.384Z,8.17
2018-05-27T10:06:33.876Z,8.00
2018-05-27T10:09:01.330Z,14.27
2018-05-27T10:11:28.804Z,7.13
2018-05-27T10:13:57.969Z,8.97
2018-05-27T10:16:25.445Z,11.00
2018-05-27T10:18:52.939Z,8.45
2018-05-27T10:21:20.412Z,9.90
2018-05-27T10:23:47.876Z,8.63
2018-05-27T10:26:15.360Z,8.80
2018-05-27T10:28:42.847Z,8.23
2018-05-27T10:31:10.319Z,8.43
2018-05-27T10:33:37.771Z,8.97
2018-05-27T10:36:06.179Z,9.97
2018-05-27T10:38:33.684Z,9.90
2018-05-27T10:41:01.192Z,9.00
2018-05-27T10:43:28.667Z,7.45
2018-05-27T10:45:59.200Z,8.13
2018-05-27T10:48:26.706Z,13.50
2018-05-27T10:50:55.874Z,10.88
2018-05-27T10:53:23.362Z,8.63
2018-05-27T10:55:50.860Z,9.07
2018-05-27T10:58:18.327Z,9.30
2018-05-27T11:00:45.835Z,10.53
2018-05-27T11:03:15.017Z,8.27
2018-05-27T11:05:46.292Z,7.80
2018-05-27T11:08:13.716Z,8.50
2018-05-27T11:10:42.012Z,8.40
2018-05-27T11:13:09.632Z,7.62
2018-05-27T11:15:37.099Z,12.97
2018-05-27T11:18:04.611Z,10.60
2018-05-27T11:20:32.074Z,8.60
2018-05-27T11:23:03.652Z,7.33
2018-05-27T11:25:34.148Z,7.67
2018-05-27T11:28:01.613Z,6.70
2018-05-27T11:30:29.098Z,7.95
2018-05-27T11:32:56.578Z,7.55
2018-05-27T11:35:24.109Z,7.00
2018-05-27T11:37:55.823Z,7.50
2018-05-27T11:40:24.142Z,9.02
2018-05-27T11:42:51.648Z,8.20
2018-05-27T11:45:21.502Z,9.80
2018-05-27T11:47:49.144Z,7.82
2018-05-27T11:50:16.711Z,8.30
2018-05-27T11:52:48.671Z,7.80
2018-05-27T11:55:16.227Z,7.97
2018-05-27T11:57:44.028Z,8.10
2018-05-27T12:00:12.501Z,7.60
2018-05-27T12:02:40.924Z,6.90
2018-05-27T12:05:09.316Z,8.48
2018-05-27T12:07:39.207Z,7.90
2018-05-27T12:10:10.504Z,7.97
2018-05-27T12:12:38.780Z,9.67
2018-05-27T12:15:06.289Z,8.27
2018-05-27T12:17:34.926Z,7.07
2018-05-27T12:20:02.489Z,7.27
2018-05-27T12:22:33.125Z,7.60
2018-05-27T12:25:04.331Z,6.57
2018-05-27T12:27:33.064Z,8.02
2018-05-27T12:30:01.764Z,6.83
2018-05-27T12:32:30.427Z,6.40
2018-05-27T12:34:57.926Z,8.43
2018-05-27T12:37:33.023Z,7.23
2018-05-27T12:40:00.489Z,6.60
2018-05-27T12:42:28.060Z,6.73
2018-05-27T12:44:55.584Z,9.63
2018-05-27T12:47:23.096Z,7.03
2018-05-27T12:49:51.524Z,7.43
2018-05-27T12:52:19.708Z,8.10
2018-05-27T12:54:50.908Z,7.87
2018-05-27T12:57:18.475Z,7.20
2018-05-27T12:59:47.057Z,6.83
2018-05-27T13:02:15.640Z,7.45
2018-05-27T13:04:43.153Z,9.20
2018-05-27T13:07:10.694Z,7.43
2018-05-27T13:09:38.213Z,8.45
2018-05-27T13:12:06.110Z,8.90
2018-05-27T13:14:33.975Z,6.90
2018-05-27T13:17:01.639Z,7.37
2018-05-27T13:19:28.991Z,6.73
2018-05-27T13:21:56.650Z,6.90
2018-05-27T13:24:28.744Z,7.40
2018-05-27T13:26:56.217Z,6.67
2018-05-27T13:29:24.541Z,7.00
2018-05-27T13:31:52.286Z,7.30
2018-05-27T13:34:19.801Z,7.53
2018-05-27T13:36:47.340Z,7.10
2018-05-27T13:39:14.812Z,6.57
2018-05-27T13:41:43.648Z,6.90
2018-05-27T13:44:12.888Z,6.80
2018-05-27T13:46:40.375Z,6.22
2018-05-27T13:49:07.965Z,6.37
2018-05-27T13:51:35.482Z,7.57
2018-05-27T13:54:06.428Z,7.83
2018-05-27T13:56:34.058Z,13.63
2018-05-27T13:59:02.313Z,6.70
2018-05-27T14:01:29.807Z,7.40
2018-05-27T14:03:57.315Z,6.33
2018-05-27T14:06:25.083Z,7.03
2018-05-27T14:08:56.507Z,9.50
2018-05-27T14:11:24.013Z,7.77
2018-05-27T14:13:51.819Z,17.23
2018-05-27T14:16:19.456Z,6.82
2018-05-27T14:18:46.956Z,9.37
2018-05-27T14:21:15.233Z,6.70
2018-05-27T14:23:43.356Z,6.40
2018-05-27T14:26:12.074Z,7.45
2018-05-27T14:28:42.147Z,9.13
2018-05-27T14:31:10.361Z,5.95
2018-05-27T14:33:38.124Z,6.57
2018-05-27T14:36:06.345Z,8.43
2018-05-27T14:38:33.837Z,7.47
2018-05-27T14:41:04.814Z,7.10
2018-05-27T14:43:32.334Z,6.60
2018-05-27T14:45:59.809Z,8.60
2018-05-27T14:48:30.326Z,7.85
2018-05-27T14:50:57.787Z,9.90
2018-05-27T14:53:25.745Z,11.00
2018-05-27T14:55:53.233Z,8.50
2018-05-27T14:58:20.697Z,7.00
2018-05-27T15:00:48.150Z,8.63
2018-05-27T15:03:15.616Z,9.03
2018-05-27T15:05:43.590Z,6.47
2018-05-27T15:08:11.241Z,7.77
2018-05-27T15:10:39.319Z,7.53
2018-05-27T15:13:06.790Z,7.78
2018-05-27T15:15:34.269Z,6.17
2018-05-27T15:18:01.774Z,6.23
2018-05-27T15:20:29.252Z,6.00
2018-05-27T15:22:56.696Z,5.80
2018-05-27T15:25:28.362Z,7.70
2018-05-27T15:27:56.228Z,6.73
2018-05-27T15:30:23.805Z,5.78
2018-05-27T15:32:51.244Z,7.07
2018-05-27T15:35:18.720Z,10.27
2018-05-27T15:37:46.974Z,6.37
2018-05-27T15:40:14.418Z,7.10
2018-05-27T15:42:41.892Z,5.65
2018-05-27T15:45:09.352Z,6.78
2018-05-27T15:47:38.281Z,5.97
2018-05-27T15:50:05.728Z,6.87
2018-05-27T15:52:33.180Z,7.13
2018-05-27T15:55:00.684Z,7.60
2018-05-27T15:57:28.138Z,12.17
2018-05-27T15:59:57.396Z,6.50
2018-05-27T16:02:24.908Z,6.50
2018-05-27T16:04:52.373Z,6.27
2018-05-27T16:07:19.824Z,5.50
2018-05-27T16:09:47.317Z,6.93
2018-05-27T16:12:16.533Z,6.40
2018-05-27T16:14:44.862Z,7.10
2018-05-27T16:17:12.474Z,6.77
2018-05-27T16:19:40.589Z,9.73
2018-05-27T16:22:08.046Z,5.93
2018-05-27T16:24:35.553Z,6.57
2018-05-27T16:27:03.104Z,5.87
2018-05-27T16:29:30.612Z,7.23
2018-05-27T16:31:58.229Z,6.03
2018-05-27T16:34:26.495Z,6.97
2018-05-27T16:36:55.308Z,6.80
2018-05-27T16:39:23.025Z,7.63
2018-05-27T16:41:50.525Z,5.93
2018-05-27T16:44:19.781Z,6.10
2018-05-27T16:46:47.340Z,6.47
2018-05-27T16:49:14.905Z,6.50
2018-05-27T16:51:42.389Z,6.45
2018-05-27T16:54:10.664Z,8.23
2018-05-27T16:56:46.078Z,7.47
2018-05-27T16:59:14.488Z,6.93
2018-05-27T17:01:42.016Z,8.63
2018-05-27T17:04:09.498Z,6.37
2018-05-27T17:06:38.471Z,6.03
2018-05-27T17:09:06.892Z,5.93
2018-05-27T17:11:35.157Z,6.40
2018-05-27T17:14:04.289Z,6.30
2018-05-27T17:16:32.434Z,7.07
2018-05-27T17:19:00.750Z,7.33
2018-05-27T17:21:28.921Z,6.47
2018-05-27T17:23:57.514Z,8.38
2018-05-27T17:26:25.084Z,6.90
2018-05-27T17:28:53.380Z,11.02
2018-05-27T17:31:21.001Z,7.55
2018-05-27T17:33:48.504Z,7.07
2018-05-27T17:36:16.075Z,11.23
2018-05-27T17:38:44.350Z,9.23
2018-05-27T17:41:12.361Z,6.78
2018-05-27T17:43:39.887Z,6.75
2018-05-27T17:46:07.388Z,7.50
2018-05-27T17:48:34.985Z,7.07
2018-05-27T17:51:02.486Z,11.50
2018-05-27T17:53:30.025Z,5.55
2018-05-27T17:55:58.301Z,6.77
2018-05-27T17:58:29.741Z,6.70
2018-05-27T18:00:58.018Z,7.73
2018-05-27T18:03:25.517Z,7.33
2018-05-27T18:05:53.034Z,9.98
2018-05-27T18:08:22.227Z,8.45
2018-05-27T18:10:51.425Z,7.22
2018-05-27T18:13:24.136Z,16.52
2018-05-27T18:15:52.939Z,6.90
2018-05-27T18:18:20.486Z,6.80
2018-05-27T18:20:47.956Z,12.60
2018-05-27T18:23:15.687Z,9.50
2018-05-27T18:25:43.253Z,8.63
2018-05-27T18:28:14.860Z,6.95
2018-05-27T18:30:42.371Z,7.57
2018-05-27T18:33:09.846Z,6.90
2018-05-27T18:35:37.329Z,7.20
2018-05-27T18:38:05.586Z,10.77
2018-05-27T18:40:33.107Z,10.77
2018-05-27T18:43:00.832Z,7.37
2018-05-27T18:45:29.133Z,10.90
2018-05-27T18:47:56.626Z,7.40
2018-05-27T18:50:25.272Z,7.60
2018-05-27T18:52:52.752Z,8.33
2018-05-27T18:55:21.020Z,9.13
2018-05-27T18:57:49.307Z,9.50
2018-05-27T19:00:16.863Z,9.70
2018-05-27T19:02:44.863Z,7.53
2018-05-27T19:05:12.395Z,10.77
2018-05-27T19:07:39.901Z,13.60
2018-05-27T19:10:08.127Z,9.40
2018-05-27T19:12:36.432Z,7.00
2018-05-27T19:15:04.019Z,7.43
2018-05-27T19:17:31.470Z,9.93
2018-05-27T19:19:58.962Z,15.43
2018-05-27T19:22:26.458Z,7.50
2018-05-27T19:24:53.920Z,8.40
2018-05-27T19:27:21.426Z,8.10
2018-05-27T19:29:48.995Z,7.90
2018-05-27T19:32:18.164Z,9.27
2018-05-27T19:34:45.689Z,9.13
2018-05-27T19:37:13.150Z,8.27
2018-05-27T19:39:40.660Z,8.90
2018-05-27T19:42:08.212Z,9.93
2018-05-27T19:44:35.625Z,8.13
2018-05-27T19:47:03.190Z,9.93
2018-05-27T19:49:32.240Z,9.94
2018-05-27T19:51:59.755Z,11.90
2018-05-27T19:54:27.270Z,8.77
2018-05-27T19:56:55.259Z,8.40
2018-05-27T19:59:22.745Z,7.77
2018-05-27T20:01:51.758Z,7.30
2018-05-27T20:04:19.273Z,9.20
2018-05-27T20:06:46.817Z,11.97
2018-05-27T20:09:14.306Z,8.80
2018-05-27T20:11:41.753Z,8.50
2018-05-27T20:14:09.917Z,9.70
2018-05-27T20:16:38.580Z,11.57
2018-05-27T20:19:06.063Z,9.93
2018-05-27T20:21:34.360Z,6.82
2018-05-27T20:24:01.896Z,7.32
2018-05-27T20:26:29.377Z,8.73
2018-05-27T20:28:57.639Z,11.47
2018-05-27T20:31:25.119Z,8.00
2018-05-27T20:33:54.261Z,7.27
2018-05-27T20:36:22.506Z,11.25
2018-05-27T20:38:50.057Z,9.20
2018-05-27T20:41:19.755Z,9.80
2018-05-27T20:43:47.260Z,17.20
2018-05-27T20:46:14.775Z,10.80
2018-05-27T20:48:42.418Z,9.80
2018-05-27T20:51:10.223Z,9.80
2018-05-27T20:53:37.893Z,10.53
2018-05-27T20:56:05.418Z,12.53
2018-05-27T20:58:32.860Z,9.10
2018-05-27T21:01:03.646Z,10.52
2018-05-27T21:03:31.101Z,16.10
2018-05-27T21:05:58.569Z,10.00
2018-05-27T21:08:26.051Z,10.40
2018-05-27T21:10:53.536Z,12.03
2018-05-27T21:13:21.954Z,9.30
2018-05-27T21:16:01.098Z,9.93
2018-05-27T21:18:29.347Z,10.17
2018-05-27T21:20:56.876Z,12.43
2018-05-27T21:23:25.113Z,9.57
2018-05-27T21:25:53.256Z,8.60
2018-05-27T21:28:20.738Z,15.60
2018-05-27T21:30:48.571Z,12.07
2018-05-27T21:33:16.068Z,12.43
2018-05-27T21:35:43.676Z,11.40
2018-05-27T21:38:11.157Z,9.50
2018-05-27T21:40:39.184Z,11.80
2018-05-27T21:43:06.887Z,9.43
2018-05-27T21:45:35.479Z,11.30
2018-05-27T21:48:03.019Z,10.37
2018-05-27T21:50:32.980Z,9.70
2018-05-27T21:53:00.416Z,9.67
2018-05-27T21:55:28.639Z,9.57
2018-05-27T21:57:56.551Z,10.32
2018-05-27T22:00:24.055Z,14.50
2018-05-27T22:02:51.513Z,13.30
2018-05-27T22:05:19.015Z,12.13
2018-05-27T22:07:46.474Z,13.85
2018-05-27T22:10:13.969Z,11.40
2018-05-27T22:12:41.428Z,11.63
2018-05-27T22:15:10.604Z,11.68
2018-05-27T22:17:38.889Z,12.07
2018-05-27T22:20:07.147Z,12.57
2018-05-27T22:22:34.770Z,8.88
2018-05-27T22:25:02.249Z,10.40
2018-05-27T22:27:29.713Z,9.07
2018-05-27T22:29:57.180Z,15.88
2018-05-27T22:32:27.451Z,11.95
2018-05-27T22:34:54.905Z,10.87
2018-05-27T22:37:22.406Z,12.37
2018-05-27T22:39:49.877Z,11.37
2018-05-27T22:42:17.389Z,11.00
2018-05-27T22:44:44.878Z,10.07
2018-05-27T22:47:16.859Z,16.33
2018-05-27T22:49:44.325Z,12.73
2018-05-27T22:52:12.593Z,11.63
2018-05-27T22:54:40.138Z,10.67
2018-05-27T22:57:08.230Z,22.05
2018-05-27T22:59:36.489Z,12.03
2018-05-27T23:02:03.957Z,14.60
2018-05-27T23:04:31.476Z,12.30
2018-05-27T23:06:58.972Z,11.45
2018-05-27T23:09:28.148Z,16.83
2018-05-27T23:11:55.629Z,11.07
2018-05-27T23:14:23.124Z,11.47
2018-05-27T23:16:52.394Z,10.93
2018-05-27T23:19:19.851Z,10.67
2018-05-27T23:21:50.192Z,12.00
2018-05-27T23:24:17.873Z,11.82
2018-05-27T23:26:45.348Z,11.20
2018-05-27T23:29:12.817Z,11.67
2018-05-27T23:31:41.231Z,12.10
2018-05-27T23:34:12.373Z,14.87
2018-05-27T23:36:39.857Z,12.13
2018-05-27T23:39:07.317Z,11.60
2018-05-27T23:41:34.816Z,10.80
2018-05-27T23:44:02.281Z,13.93
2018-05-27T23:46:30.681Z,11.75
2018-05-27T23:48:58.165Z,12.57
2018-05-27T23:51:25.643Z,14.37
2018-05-27T23:53:53.148Z,12.75
2018-05-27T23:56:20.615Z,13.23
2018-05-27T23:58:48.115Z,14.60
